createdAt,value
2022-08-26T00:00:24.247Z,18.55
2022-08-26T00:05:28.366Z,17.85
2022-08-26T00:10:34.427Z,18.67
2022-08-26T00:15:39.180Z,18.88
2022-08-26T00:20:43.189Z,18.80
2022-08-26T00:25:48.639Z,19.13
2022-08-26T00:30:53.485Z,19.38
2022-08-26T00:35:57.810Z,19.70
2022-08-26T00:41:05.419Z,19.40
2022-08-26T00:46:12.465Z,18.83
2022-08-26T00:51:19.861Z,18.05
2022-08-26T00:56:30.141Z,18.42
2022-08-26T01:01:34.090Z,18.88
2022-08-26T01:06:37.705Z,19.35
2022-08-26T01:11:43.225Z,18.57
2022-08-26T01:16:48.011Z,18.92
2022-08-26T01:21:59.198Z,19.17
2022-08-26T01:27:08.976Z,18.48
2022-08-26T01:32:18.105Z,18.83
2022-08-26T01:37:25.424Z,19.02
2022-08-26T01:42:30.901Z,18.70
2022-08-26T01:47:37.951Z,18.48
2022-08-26T01:52:44.570Z,18.75
2022-08-26T01:57:57.460Z,18.27
2022-08-26T02:03:18.027Z,18.38
2022-08-26T02:08:27.248Z,18.23
2022-08-26T02:13:34.282Z,18.90
2022-08-26T02:18:40.112Z,19.08
2022-08-26T02:23:43.829Z,19.60
2022-08-26T02:28:54.812Z,18.42
2022-08-26T02:34:10.748Z,18.50
2022-08-26T02:39:19.561Z,18.35
2022-08-26T02:44:28.269Z,18.90
2022-08-26T02:49:32.194Z,18.92
2022-08-26T02:54:36.133Z,18.17
2022-08-26T02:59:41.245Z,17.95
2022-08-26T03:04:57.339Z,17.88
2022-08-26T03:10:08.481Z,18.83
2022-08-26T03:15:17.889Z,18.67
2022-08-26T03:20:23.256Z,18.63
2022-08-26T03:25:28.248Z,18.48
2022-08-26T03:35:50.714Z,17.30
2022-08-26T03:40:55.656Z,16.77
2022-08-26T03:46:00.561Z,16.80
2022-08-26T03:51:08.329Z,17.23
2022-08-26T03:56:16.189Z,17.63
2022-08-26T04:06:25.132Z,16.80
2022-08-26T04:11:34.128Z,16.35
2022-08-26T04:16:40.256Z,16.27
2022-08-26T04:21:45.152Z,16.38
2022-08-26T04:26:49.590Z,15.95
2022-08-26T04:37:00.110Z,17.67
2022-08-26T04:42:03.574Z,17.17
2022-08-26T04:47:08.460Z,16.15
2022-08-26T04:52:13.438Z,16.52
2022-08-26T04:57:16.970Z,16.42
2022-08-26T05:02:22.496Z,16.80
2022-08-26T05:07:27.913Z,17.65
2022-08-26T05:12:32.381Z,18.08
2022-08-26T05:17:38.231Z,18.45
2022-08-26T05:22:42.890Z,19.50
2022-08-26T05:27:46.793Z,19.45
2022-08-26T05:32:55.334Z,19.20
2022-08-26T05:38:00.657Z,19.60
2022-08-26T05:43:08.197Z,19.25
2022-08-26T05:48:15.524Z,18.02
2022-08-26T05:53:22.133Z,17.42
2022-08-26T05:58:28.838Z,16.40
2022-08-26T06:03:35.840Z,16.17
2022-08-26T06:08:40.072Z,15.32
2022-08-26T06:13:44.867Z,14.93
2022-08-26T06:18:51.428Z,14.50
2022-08-26T06:24:14.504Z,12.32
2022-08-26T06:29:24.184Z,13.15
2022-08-26T06:34:32.873Z,12.38
2022-08-26T06:39:41.188Z,12.27
2022-08-26T06:44:45.389Z,12.45
2022-08-26T06:49:51.110Z,10.90
2022-08-26T06:54:57.938Z,11.00
2022-08-26T07:00:04.005Z,10.70
2022-08-26T07:05:10.356Z,11.00
2022-08-26T07:10:14.008Z,9.77
2022-08-26T07:15:17.726Z,10.75
2022-08-26T07:20:29.140Z,10.23
2022-08-26T07:25:32.718Z,9.98
2022-08-26T07:30:40.969Z,10.05
2022-08-26T07:35:47.755Z,9.90
2022-08-26T07:40:51.416Z,10.23
2022-08-26T07:45:57.735Z,11.55
2022-08-26T07:51:04.891Z,10.05
2022-08-26T07:56:10.674Z,10.23
2022-08-26T08:01:15.212Z,9.85
2022-08-26T08:06:21.730Z,10.00
2022-08-26T08:11:27.322Z,10.85
2022-08-26T08:16:32.219Z,9.68
2022-08-26T08:21:38.295Z,9.18
2022-08-26T08:26:41.987Z,9.80
2022-08-26T08:31:56.467Z,9.30
2022-08-26T08:37:05.247Z,9.52
2022-08-26T08:42:37.972Z,9.13
2022-08-26T08:47:44.170Z,8.52
2022-08-26T08:52:56.250Z,8.73
2022-08-26T08:58:04.927Z,8.73
2022-08-26T09:03:19.510Z,8.77
2022-08-26T09:08:29.546Z,8.60
2022-08-26T09:13:33.021Z,8.70
2022-08-26T09:18:49.717Z,9.52
2022-08-26T09:23:56.961Z,9.05
2022-08-26T09:29:02.595Z,9.57
2022-08-26T09:34:17.466Z,9.15
2022-08-26T09:39:37.720Z,8.70
2022-08-26T09:44:57.041Z,8.80
2022-08-26T09:50:09.602Z,8.15
2022-08-26T09:55:17.292Z,8.35
2022-08-26T10:00:31.273Z,8.70
2022-08-26T10:05:44.398Z,8.32
2022-08-26T10:10:53.110Z,8.00
2022-08-26T10:16:02.921Z,8.25
2022-08-26T10:21:13.691Z,8.00
2022-08-26T10:26:24.149Z,8.18
2022-08-26T10:31:30.923Z,8.30
2022-08-26T10:37:14.990Z,7.57
2022-08-26T10:42:24.799Z,8.30
2022-08-26T10:47:36.207Z,7.65
2022-08-26T10:52:53.536Z,7.65
2022-08-26T10:58:09.175Z,7.75
2022-08-26T11:03:32.108Z,8.05
2022-08-26T11:08:35.604Z,7.80
2022-08-26T11:14:02.222Z,6.95
2022-08-26T11:19:06.881Z,6.90
2022-08-26T11:24:11.308Z,6.93
2022-08-26T11:29:55.129Z,7.32
2022-08-26T11:35:01.829Z,8.05
2022-08-26T11:40:10.992Z,7.53
2022-08-26T11:45:20.406Z,8.25
2022-08-26T11:50:27.099Z,7.30
2022-08-26T11:55:33.372Z,7.03
2022-08-26T12:00:51.889Z,6.82
2022-08-26T12:05:57.370Z,7.00
2022-08-26T12:11:06.507Z,6.85
2022-08-26T12:16:11.619Z,6.30
2022-08-26T12:21:22.204Z,7.15
2022-08-26T12:26:30.048Z,6.82
2022-08-26T12:31:37.189Z,7.07
2022-08-26T12:36:47.024Z,7.38
2022-08-26T12:41:53.355Z,7.28
2022-08-26T12:47:05.600Z,7.25
2022-08-26T12:52:30.046Z,7.30
2022-08-26T12:57:36.400Z,7.53
2022-08-26T13:02:42.288Z,6.97
2022-08-26T13:07:45.941Z,7.40
2022-08-26T13:12:49.383Z,7.80
2022-08-26T13:17:54.146Z,8.05
2022-08-26T13:23:03.254Z,7.43
2022-08-26T13:28:06.778Z,7.13
2022-08-26T13:33:12.646Z,7.43
2022-08-26T13:38:32.857Z,7.32
2022-08-26T13:43:37.327Z,6.90
2022-08-26T13:48:42.243Z,6.57
2022-08-26T13:53:48.529Z,6.80
2022-08-26T13:58:51.958Z,6.03
2022-08-26T14:03:56.999Z,6.07
2022-08-26T14:09:00.796Z,5.63
2022-08-26T14:14:04.716Z,6.03
2022-08-26T14:19:10.998Z,5.53
2022-08-26T14:24:14.556Z,5.60
2022-08-26T14:29:19.364Z,5.60
2022-08-26T14:34:25.409Z,5.70
2022-08-26T14:39:28.905Z,6.15
2022-08-26T14:44:34.547Z,6.25
2022-08-26T14:49:39.607Z,6.95
2022-08-26T14:54:43.114Z,7.20
2022-08-26T14:59:50.410Z,7.95
2022-08-26T15:04:55.633Z,7.28
2022-08-26T15:09:59.729Z,7.13
2022-08-26T15:15:03.623Z,7.90
2022-08-26T15:20:11.133Z,7.03
2022-08-26T15:25:15.185Z,7.35
2022-08-26T15:30:19.758Z,7.10
2022-08-26T15:35:25.365Z,7.53
2022-08-26T15:40:29.023Z,7.65
2022-08-26T15:45:34.947Z,7.25
2022-08-26T15:50:50.455Z,8.00
2022-08-26T15:55:56.315Z,7.80
2022-08-26T16:01:00.133Z,8.65
2022-08-26T16:06:06.219Z,8.02
2022-08-26T16:11:10.504Z,8.25
2022-08-26T16:16:14.772Z,7.85
2022-08-26T16:21:22.085Z,7.93
2022-08-26T16:26:28.952Z,8.70
2022-08-26T16:31:32.595Z,8.30
2022-08-26T16:36:39.382Z,8.63
2022-08-26T16:41:43.548Z,8.40
2022-08-26T16:46:47.055Z,9.00
2022-08-26T16:56:55.711Z,9.60
2022-08-26T17:01:59.938Z,9.63
2022-08-26T17:07:05.203Z,9.38
2022-08-26T17:12:09.322Z,9.70
2022-08-26T17:17:13.017Z,9.50
2022-08-26T17:22:18.357Z,9.65
2022-08-26T17:27:22.175Z,10.20
2022-08-26T17:32:26.527Z,12.77
2022-08-26T17:37:31.542Z,12.40
2022-08-26T17:42:35.537Z,12.57
2022-08-26T17:47:39.886Z,14.43
2022-08-26T17:52:45.878Z,14.18
2022-08-26T17:57:53.382Z,13.60
2022-08-26T18:02:57.639Z,22.02
2022-08-26T18:08:03.312Z,41.08
2022-08-26T18:13:06.878Z,41.58
2022-08-26T18:18:11.087Z,29.67
2022-08-26T18:23:16.144Z,25.60
2022-08-26T18:28:21.160Z,23.30
2022-08-26T18:33:25.075Z,24.17
2022-08-26T18:38:29.927Z,25.90
2022-08-26T18:43:34.395Z,21.25
2022-08-26T18:48:39.764Z,26.80
2022-08-26T18:53:44.761Z,29.58
2022-08-26T18:58:49.212Z,29.35
2022-08-26T19:03:52.870Z,28.33
2022-08-26T19:08:57.999Z,27.25
2022-08-26T19:14:02.293Z,22.17
2022-08-26T19:19:06.237Z,25.25
2022-08-26T19:24:17.695Z,22.38
2022-08-26T19:29:23.535Z,22.00
2022-08-26T19:34:28.048Z,20.00
2022-08-26T19:39:32.932Z,21.38
2022-08-26T19:44:54.065Z,19.17
2022-08-26T19:49:58.364Z,16.77
2022-08-26T19:55:03.513Z,16.85
2022-08-26T20:00:11.108Z,17.23
2022-08-26T20:05:16.519Z,17.80
2022-08-26T20:10:24.360Z,17.08
2022-08-26T20:15:28.548Z,17.02
2022-08-26T20:20:51.174Z,18.25
2022-08-26T20:25:57.507Z,16.02
2022-08-26T20:31:01.878Z,18.33
2022-08-26T20:36:07.239Z,16.52
2022-08-26T20:41:12.527Z,15.30
2022-08-26T20:46:19.555Z,15.52
2022-08-26T20:51:25.427Z,16.33
2022-08-26T20:56:30.416Z,14.88
2022-08-26T21:01:37.154Z,15.25
2022-08-26T21:06:52.112Z,16.85
2022-08-26T21:11:57.449Z,15.38
2022-08-26T21:17:01.290Z,14.95
2022-08-26T21:22:05.590Z,14.68
2022-08-26T21:37:19.408Z,14.27
2022-08-26T21:42:26.661Z,14.53
2022-08-26T21:47:32.689Z,14.38
2022-08-26T21:52:36.260Z,14.30
2022-08-26T21:57:41.156Z,14.47
2022-08-26T22:02:45.075Z,15.13
2022-08-26T22:07:48.571Z,14.38
2022-08-26T22:12:53.510Z,14.43
2022-08-26T22:17:57.122Z,14.57
2022-08-26T22:23:01.221Z,14.50
2022-08-26T22:28:07.894Z,14.85
2022-08-26T22:33:11.990Z,14.77
2022-08-26T22:38:16.546Z,14.88
2022-08-26T22:43:21.530Z,15.25
2022-08-26T22:48:27.117Z,15.02
2022-08-26T22:53:30.723Z,15.68
2022-08-26T22:58:41.536Z,15.93
2022-08-26T23:03:45.356Z,15.70
2022-08-26T23:08:49.510Z,14.98
2022-08-26T23:13:54.786Z,16.83
2022-08-26T23:18:58.446Z,16.30
2022-08-26T23:24:02.471Z,15.50
2022-08-26T23:29:09.114Z,16.33
2022-08-26T23:34:30.495Z,15.50
2022-08-26T23:39:35.390Z,15.82
2022-08-26T23:44:40.796Z,16.38
2022-08-26T23:49:44.317Z,15.00
2022-08-26T23:54:48.748Z,15.47
